EBCI - Charleroi/Gosselies, Belgium
Distance de la station: NE 18km
Mise à jour: 13/07/2020 07:20
clair
clair
 Wind from NNE
Vent: NNE 9 km/h
Température: 13°C
Point de rosée: 9°C
Humidité: 77%
Baromètre: 1025 hPa
Résumé: clair
Visibilité: greater than 10 km
2020/07/13 05:20 EBCI 130520Z 03005KT CAVOK 13/09 Q1025 NOSIG
EBFS - Florennes, Belgium
Distance de la station: ESE 31km
Mise à jour: 13/07/2020 07:25
partiellement nuageux
partiellement nuageux
 Wind from varies
Vent: varies 4 km/h
Température: 12°C
Point de rosée: 8°C
Humidité: 77%
Baromètre: 1024 hPa
Ciel: partiellement nuageux
Visibilité: 10 km
Détails du ciel: partiellement nuageux 6706 m
2020/07/13 05:25 EBFS 130525Z VRB02KT 9999 SCT220 12/08 Q1024 BLU BLU
EBCV - Chievres, Belgium
Distance de la station: NO 40km
Mise à jour: 13/07/2020 07:25
clair
clair
 Wind from varies
Vent: varies 4 km/h
Température: 12°C
Point de rosée: 10°C
Humidité: 88%
Baromètre: 1025 hPa
Ciel: clair
Visibilité: 10 km
2020/07/13 05:25 EBCV 130525Z AUTO VRB02KT 9999 NCD 12/10 Q1025 BLU
 
EBBE - Beauvechain, Belgium
Distance de la station: NE 57km
Mise à jour: 13/07/2020 07:25
quelques nuages
quelques nuages
 Wind from varies
Vent: varies 2 km/h
Température: 13°C
Point de rosée: 10°C
Humidité: 82%
Baromètre: 1025 hPa
Ciel: quelques nuages
Visibilité: 10 km
Détails du ciel: quelques nuages 7620 m
2020/07/13 05:25 EBBE 130525Z VRB01KT 9999 FEW250 13/10 Q1025 BLU BLU
EBBR - Brussels National, Belgium
Distance de la station: NNE 63km
Mise à jour: 13/07/2020 07:20
clair
clair
 Wind from calm
Vent: calme
Température: 13°C
Point de rosée: 10°C
Humidité: 82%
Baromètre: 1025 hPa
Résumé: clair
Visibilité: greater than 10 km
2020/07/13 05:20 EBBR 130520Z 00000KT CAVOK 13/10 Q1025 NOSIG
LFQI - Cambrai/Epinoy, France
Distance de la station: O 82km
Mise à jour: 29/06/2012 12:30
NOT Current

 Wind from SO
Vent: SO 17 km/h
Température: 18°C
Point de rosée: 14°C
Humidité: 78%
Baromètre: 1009 hPa
2012/06/29 10:30 LFQI 291030Z AUTO 22009KT //// // ///////// 18/14 Q1009
 
LFQQ - Lille/Lesquin, France
Distance de la station: ONO 86km
Mise à jour: 13/07/2020 07:30
clair
clair
 Wind from calm
Vent: calme
Température: 15°C
Point de rosée: 9°C
Humidité: 68%
Baromètre: 1025 hPa
Résumé: clair
Visibilité: greater than 10 km
2020/07/13 05:30 LFQQ 130530Z AUTO 00000KT CAVOK 15/09 Q1025 NOSIG
EBLG - Bierset/Liege, Belgium
Distance de la station: ENE 89km
Mise à jour: 13/07/2020 07:20
clair
clair
 Wind from varies
Vent: varies 2 km/h
Température: 13°C
Point de rosée: 10°C
Humidité: 82%
Baromètre: 1025 hPa
Résumé: clair
Visibilité: greater than 10 km
2020/07/13 05:20 EBLG 130520Z VRB01KT CAVOK 13/10 Q1025 NOSIG
EBDT - Schaffen, Belgium
Distance de la station: NE 93km
Mise à jour: 13/07/2020 07:25
quelques nuages
quelques nuages
 Wind from varies
Vent: varies 4 km/h
Température: 12°C
Point de rosée: 10°C
Humidité: 88%
Baromètre: 1025 hPa
Ciel: quelques nuages
Visibilité: 10 km
Détails du ciel: quelques nuages 4877 m
2020/07/13 05:25 EBDT 130525Z AUTO VRB02KT 9999 FEW160/// 12/10 Q1025 BLU
 
EBAW - Antwerp/Deurne, Belgium
Distance de la station: N 96km
Mise à jour: 13/07/2020 07:20
clair
clair
 Wind from calm
Vent: calme
Température: 14°C
Point de rosée: 11°C
Humidité: 82%
Baromètre: 1025 hPa
Résumé: clair
Visibilité: greater than 10 km
2020/07/13 05:20 EBAW 130520Z 00000KT CAVOK 14/11 Q1025 NOSIG
LFAQ - Bray, France
Distance de la station: OSO 119km
Mise à jour: 13/07/2020 07:30
clair
clair
 Wind from N
Vent: N 17 km/h
Température: 13°C
Point de rosée: 10°C
Humidité: 82%
Baromètre: 1025 hPa
Résumé: clair
Visibilité: greater than 10 km
2020/07/13 05:30 LFAQ 130530Z AUTO 01009KT CAVOK 13/10 Q1025
LFSR - Reims/Champagne, France
Distance de la station: S 120km
Mise à jour: 16/04/2012 09:00
NOT Current
partiellement nuageux
partiellement nuageux
 Wind from N
Vent: N 17 km/h
Température: 4°C
Température ressentie: 0°C
Point de rosée: 0°C
Humidité: 75%
Baromètre: 1022 hPa
Ciel: partiellement nuageux
Visibilité: 10 km
2012/04/16 07:00 LFSR 160700Z AUTO 01009KT 340V070 9999 NSC 04/00 Q1022
 
EHWO - Woensdrecht, Netherlands
Distance de la station: N 122km
Mise à jour: 13/07/2020 07:25
clair
clair
 Wind from ENE
Vent: ENE 6 km/h
Température: 12°C
Point de rosée: 11°C
Humidité: 94%
Baromètre: 1025 hPa
Ciel: clair
Visibilité: 10 km
2020/07/13 05:25 EHWO 130525Z AUTO 07003KT 9999 NCD 12/11 Q1025 BLU
EHBK - Zuid-Limburg, Netherlands
Distance de la station: ENE 123km
Mise à jour: 13/07/2020 07:25
partiellement nuageux
partiellement nuageux
 Wind from NE
Vent: NE 6 km/h
Température: 13°C
Point de rosée: 9°C
Humidité: 77%
Baromètre: 1024 hPa
Ciel: partiellement nuageux
Visibilité: 10 km
2020/07/13 05:25 EHBK 130525Z AUTO 04003KT 9999 NSC 13/09 Q1024 NOSIG
EBBL - Kleine-Brogel, Belgium
Distance de la station: NE 124km
Mise à jour: 13/07/2020 07:25
partiellement nuageux
partiellement nuageux
 Wind from varies
Vent: varies 4 km/h
Température: 12°C
Point de rosée: 10°C
Humidité: 88%
Baromètre: 1025 hPa
Ciel: partiellement nuageux
Visibilité: 10 km
Détails du ciel: partiellement nuageux 7620 m
2020/07/13 05:25 EBBL 130525Z VRB02KT 9999 SCT250 12/10 Q1025 BLU BLU
 
EBLB - Elsenborn, Belgium
Distance de la station: E 135km
Mise à jour: 13/07/2020 07:25
clair
clair
 Wind from varies
Vent: varies 2 km/h
Température: 8°C
Point de rosée: 7°C
Humidité: 93%
Baromètre: 1025 hPa
Ciel: clair
Visibilité: 10 km
2020/07/13 05:25 EBLB 130525Z AUTO VRB01KT 9999 NCD 08/07 Q1025 BLU
EBOS - Oostende Airport, Belgium
Distance de la station: NO 136km
Mise à jour: 13/07/2020 07:20
clair
clair
 Wind from SE
Vent: SE 2 km/h
Température: 12°C
Point de rosée: 11°C
Humidité: 94%
Baromètre: 1025 hPa
Résumé: clair
Visibilité: greater than 10 km
2020/07/13 05:20 EBOS 130520Z 13001KT CAVOK 12/11 Q1025 NOSIG
EBFN - Koksijde, Belgium
Distance de la station: NO 140km
Mise à jour: 13/07/2020 07:25
clair
clair
 Wind from varies
Vent: varies 2 km/h
Température: 13°C
Point de rosée: 10°C
Humidité: 82%
Baromètre: 1025 hPa
Ciel: clair
Visibilité: 10 km
2020/07/13 05:25 EBFN 130525Z AUTO VRB01KT 9999 NCD 13/10 Q1025 BLU
 
ETNG - Geilenkirchen, Germany
Distance de la station: ENE 142km
Mise à jour: 13/07/2020 06:50
clair
clair
 Wind from calm
Vent: calme
Température: 10°C
Point de rosée: 9°C
Humidité: 94%
Baromètre: 1024 hPa
Résumé: clair
Visibilité: greater than 10 km
2020/07/13 04:50 ETNG 130450Z 00000KT CAVOK 10/09 Q1024 NOSIG
EHGR - Gilze-Rijen, Netherlands
Distance de la station: NNE 143km
Mise à jour: 13/07/2020 07:27
clair
clair
 Wind from varies
Vent: varies 2 km/h
Température: 14°C
Point de rosée: 11°C
Humidité: 82%
Baromètre: 1025 hPa
Ciel: clair
Visibilité: 10 km
2020/07/13 05:27 EHGR 130527Z AUTO VRB01KT 9999 NCD 14/11 Q1025 BLU 02002KT CAVOK
EHEH - Eindhoven, Netherlands
Distance de la station: NNE 147km
Mise à jour: 13/07/2020 07:25
clair
clair
 Wind from varies
Vent: varies 2 km/h
Température: 12°C
Point de rosée: 10°C
Humidité: 88%
Baromètre: 1025 hPa
Ciel: clair
Visibilité: 10 km
2020/07/13 05:25 EHEH 130525Z AUTO VRB01KT 9999 NCD 12/10 Q1025 BLU VRB02KT CAVOK
 
ELLX - Luxembourg, Luxembourg
Distance de la station: ESE 162km
Mise à jour: 13/07/2020 07:20
clair
clair
 Wind from NE
Vent: NE 17 km/h
Température: 15°C
Point de rosée: 6°C
Humidité: 55%
Baromètre: 1024 hPa
Résumé: clair
Visibilité: greater than 10 km
2020/07/13 05:20 ELLX 130520Z 05009KT CAVOK 15/06 Q1024 NOSIG
EHVK - Volkel, Netherlands
Distance de la station: NE 174km
Mise à jour: 13/07/2020 07:25
quelques nuages
quelques nuages
 Wind from varies
Vent: varies 4 km/h
Température: 11°C
Point de rosée: 11°C
Humidité: 100%
Baromètre: 1025 hPa
Ciel: quelques nuages
Visibilité: 10 km
Détails du ciel: quelques nuages 7620 m
2020/07/13 05:25 EHVK 130525Z AUTO VRB02KT 9999 FEW250 11/11 Q1025 BLU
LFOK - Chalons/Vatry, France
Distance de la station: S 174km
Mise à jour: 13/07/2020 07:30
clair
clair
 Wind from NNE
Vent: NNE 13 km/h
Température: 12°C
Point de rosée: 9°C
Humidité: 82%
Baromètre: 1023 hPa
Résumé: clair
Visibilité: greater than 10 km
2020/07/13 05:30 LFOK 130530Z AUTO 02007KT CAVOK 12/09 Q1023 NOSIG
Script from Saratoga-Weather.org